createdAt,value
2023-01-01T00:02:37.696Z,98363.63
2023-01-01T00:05:44.498Z,98350.34
2023-01-01T00:09:15.081Z,98347.03
2023-01-01T00:12:21.346Z,98342.53
2023-01-01T00:15:29.401Z,98335.56
2023-01-01T00:18:35.706Z,98334.53
2023-01-01T00:21:43.049Z,98342.06
2023-01-01T00:24:51.798Z,98345.59
2023-01-01T00:27:58.779Z,98331.97
2023-01-01T00:31:10.973Z,98327.47
2023-01-01T00:34:18.151Z,98330.13
2023-01-01T00:37:24.429Z,98343.94
2023-01-01T00:40:34.188Z,98339.28
2023-01-01T00:43:40.458Z,98350.16
2023-01-01T00:46:47.500Z,98348.47
2023-01-01T00:49:53.828Z,98343.81
2023-01-01T00:53:00.964Z,98343.81
2023-01-01T00:56:10.525Z,98342.81
2023-01-01T00:59:17.553Z,98346.13
2023-01-01T01:02:23.805Z,98342.50
2023-01-01T01:05:30.833Z,98346.09
2023-01-01T01:08:40.644Z,98347.47
2023-01-01T01:11:50.368Z,98356.13
2023-01-01T01:14:56.520Z,98365.88
2023-01-01T01:18:03.479Z,98365.03
2023-01-01T01:21:10.070Z,98362.22
2023-01-01T01:24:17.062Z,98360.03
2023-01-01T01:27:25.780Z,98357.00
2023-01-01T01:30:33.481Z,98363.47
2023-01-01T01:33:39.941Z,98358.66
2023-01-01T01:36:46.839Z,98353.13
2023-01-01T01:39:54.128Z,98339.00
2023-01-01T01:43:04.080Z,98337.81
2023-01-01T01:46:17.537Z,98342.38
2023-01-01T01:49:33.667Z,98352.22
2023-01-01T01:52:50.843Z,98339.44
2023-01-01T01:56:04.544Z,98341.03
2023-01-01T01:59:13.516Z,98337.19
2023-01-01T02:02:35.387Z,98336.31
2023-01-01T02:05:45.407Z,98333.97
2023-01-01T02:08:54.758Z,98320.19
2023-01-01T02:12:02.966Z,98330.91
2023-01-01T02:15:13.992Z,98337.25
2023-01-01T02:18:28.256Z,98334.97
2023-01-01T02:21:53.146Z,98334.94
2023-01-01T02:25:23.866Z,98321.16
2023-01-01T02:28:59.021Z,98318.91
2023-01-01T02:32:12.492Z,98311.41
2023-01-01T02:35:46.132Z,98318.41
2023-01-01T02:38:59.923Z,98318.66
2023-01-01T02:42:10.981Z,98326.06
2023-01-01T02:45:19.724Z,98329.09
2023-01-01T02:48:44.539Z,98323.19
2023-01-01T02:52:08.325Z,98333.97
2023-01-01T02:55:37.385Z,98338.63
2023-01-01T02:59:19.858Z,98338.22
2023-01-01T03:02:50.713Z,98345.75
2023-01-01T03:06:27.286Z,98349.38
2023-01-01T03:09:57.233Z,98340.81
2023-01-01T03:13:16.673Z,98328.66
2023-01-01T03:16:38.443Z,98351.31
2023-01-01T03:19:49.410Z,98355.00
2023-01-01T03:23:05.258Z,98348.19
2023-01-01T03:26:18.255Z,98337.34
2023-01-01T03:29:27.485Z,98344.34
2023-01-01T03:32:56.823Z,98341.38
2023-01-01T03:36:16.041Z,98347.53
2023-01-01T03:39:29.909Z,98349.00
2023-01-01T03:42:44.652Z,98351.38
2023-01-01T03:45:58.036Z,98349.31
2023-01-01T03:49:09.822Z,98341.38
2023-01-01T03:52:46.061Z,98349.53
2023-01-01T03:56:10.422Z,98343.31
2023-01-01T03:59:26.915Z,98342.72
2023-01-01T04:02:43.052Z,98339.72
2023-01-01T04:05:49.809Z,98347.22
2023-01-01T04:09:06.949Z,98347.31
2023-01-01T04:12:14.520Z,98330.03
2023-01-01T04:15:25.167Z,98335.66
2023-01-01T04:18:32.040Z,98335.25
2023-01-01T04:21:38.933Z,98335.50
2023-01-01T04:24:47.581Z,98351.50
2023-01-01T04:27:54.507Z,98329.75
2023-01-01T04:31:04.221Z,98357.06
2023-01-01T04:34:11.240Z,98351.59
2023-01-01T04:37:17.424Z,98352.91
2023-01-01T04:40:26.927Z,98358.00
2023-01-01T04:43:34.986Z,98351.06
2023-01-01T04:46:42.833Z,98344.06
2023-01-01T04:49:48.903Z,98341.44
2023-01-01T04:52:56.694Z,98358.44
2023-01-01T04:56:12.057Z,98355.13
2023-01-01T04:59:19.004Z,98359.63
2023-01-01T05:02:25.107Z,98366.78
2023-01-01T05:05:32.079Z,98375.63
2023-01-01T05:08:42.796Z,98389.03
2023-01-01T05:11:52.314Z,98403.13
2023-01-01T05:14:58.338Z,98414.75
2023-01-01T05:18:05.297Z,98416.56
2023-01-01T05:21:15.150Z,98423.19
2023-01-01T05:24:22.078Z,98413.19
2023-01-01T05:27:30.830Z,98394.63
2023-01-01T05:30:37.980Z,98385.84
2023-01-01T05:33:45.249Z,98387.88
2023-01-01T05:36:52.210Z,98400.34
2023-01-01T05:39:58.500Z,98381.41
2023-01-01T05:43:07.985Z,98402.03
2023-01-01T05:46:17.954Z,98403.56
2023-01-01T05:49:25.656Z,98398.69
2023-01-01T05:52:31.752Z,98401.06
2023-01-01T05:55:38.694Z,98403.50
2023-01-01T05:58:48.872Z,98404.97
2023-01-01T06:01:55.844Z,98409.28
2023-01-01T06:05:01.925Z,98410.69
2023-01-01T06:08:09.845Z,98405.31
2023-01-01T06:11:15.972Z,98408.50
2023-01-01T06:14:25.513Z,98412.66
2023-01-01T06:17:31.558Z,98414.94
2023-01-01T06:20:38.489Z,98413.81
2023-01-01T06:23:45.481Z,98418.50
2023-01-01T06:26:52.513Z,98428.19
2023-01-01T06:30:02.014Z,98418.06
2023-01-01T06:33:09.394Z,98438.69
2023-01-01T06:36:19.739Z,98442.53
2023-01-01T06:39:26.591Z,98448.91
2023-01-01T06:42:34.171Z,98447.75
2023-01-01T06:45:43.756Z,98442.94
2023-01-01T06:48:52.518Z,98454.06
2023-01-01T06:51:59.710Z,98451.25
2023-01-01T06:55:05.877Z,98460.75
2023-01-01T06:58:12.972Z,98472.38
2023-01-01T07:01:25.714Z,98472.34
2023-01-01T07:04:32.816Z,98471.22
2023-01-01T07:07:38.904Z,98476.69
2023-01-01T07:10:45.869Z,98484.03
2023-01-01T07:13:52.028Z,98486.97
2023-01-01T07:17:01.583Z,98487.81
2023-01-01T07:20:09.105Z,98477.03
2023-01-01T07:23:16.065Z,98500.44
2023-01-01T07:26:22.126Z,98502.09
2023-01-01T07:29:29.238Z,98509.78
2023-01-01T07:32:38.044Z,98505.63
2023-01-01T07:35:45.941Z,98501.78
2023-01-01T07:38:52.038Z,98521.53
2023-01-01T07:41:59.027Z,98526.72
2023-01-01T07:45:05.212Z,98533.53
2023-01-01T07:48:19.096Z,98525.53
2023-01-01T07:51:26.404Z,98531.69
2023-01-01T07:54:33.314Z,98533.19
2023-01-01T07:57:39.411Z,98537.50
2023-01-01T08:00:50.654Z,98540.16
2023-01-01T08:03:59.436Z,98552.16
2023-01-01T08:07:06.368Z,98557.81
2023-01-01T08:10:13.857Z,98571.28
2023-01-01T08:13:20.821Z,98571.97
2023-01-01T08:16:27.128Z,98582.22
2023-01-01T08:19:36.765Z,98583.38
2023-01-01T08:22:42.810Z,98593.38
2023-01-01T08:25:50.511Z,98595.84
2023-01-01T08:28:57.553Z,98591.22
2023-01-01T08:32:04.530Z,98585.50
2023-01-01T08:35:14.510Z,98581.16
2023-01-01T08:38:21.520Z,98590.75
2023-01-01T08:41:27.632Z,98592.34
2023-01-01T08:44:34.524Z,98588.34
2023-01-01T08:47:40.744Z,98597.94
2023-01-01T08:50:56.623Z,98592.75
2023-01-01T08:54:02.971Z,98603.56
2023-01-01T08:57:10.219Z,98594.75
2023-01-01T09:00:18.399Z,98589.03
2023-01-01T09:03:26.581Z,98597.31
2023-01-01T09:06:35.443Z,98587.78
2023-01-01T09:09:42.444Z,98592.03
2023-01-01T09:12:48.715Z,98578.81
2023-01-01T09:15:56.311Z,98569.88
2023-01-01T09:19:02.666Z,98556.53
2023-01-01T09:22:16.077Z,98559.78
2023-01-01T09:25:22.589Z,98556.22
2023-01-01T09:28:29.848Z,98564.88
2023-01-01T09:31:36.126Z,98558.25
2023-01-01T09:34:47.323Z,98549.19
2023-01-01T09:38:00.140Z,98536.59
2023-01-01T09:41:25.018Z,98553.72
2023-01-01T09:45:05.609Z,98548.38
2023-01-01T09:48:20.680Z,98559.53
2023-01-01T09:51:45.257Z,98568.41
2023-01-01T09:55:07.388Z,98561.81
2023-01-01T09:58:16.419Z,98565.75
2023-01-01T10:01:48.072Z,98566.13
2023-01-01T10:05:13.345Z,98556.66
2023-01-01T10:08:42.764Z,98563.66
2023-01-01T10:12:08.984Z,98546.91
2023-01-01T10:15:25.270Z,98552.72
2023-01-01T10:18:38.631Z,98541.75
2023-01-01T10:21:49.749Z,98545.03
2023-01-01T10:25:04.057Z,98547.16
2023-01-01T10:28:26.151Z,98549.16
2023-01-01T10:31:37.854Z,98556.81
2023-01-01T10:34:45.625Z,98539.41
2023-01-01T10:37:53.098Z,98533.44
2023-01-01T10:41:18.981Z,98535.94
2023-01-01T10:44:34.724Z,98537.38
2023-01-01T10:47:41.854Z,98543.41
2023-01-01T10:50:53.815Z,98517.09
2023-01-01T10:54:01.153Z,98532.63
2023-01-01T10:57:21.665Z,98535.25
2023-01-01T11:00:32.288Z,98523.16
2023-01-01T11:03:39.118Z,98523.16
2023-01-01T11:06:50.377Z,98519.97
2023-01-01T11:10:05.366Z,98512.97
2023-01-01T11:13:25.800Z,98519.03
2023-01-01T11:16:42.024Z,98502.03
2023-01-01T11:19:59.760Z,98505.66
2023-01-01T11:23:31.713Z,98505.19
2023-01-01T11:26:40.868Z,98509.56
2023-01-01T11:29:48.513Z,98495.06
2023-01-01T11:33:04.767Z,98491.38
2023-01-01T11:36:12.406Z,98490.22
2023-01-01T11:39:29.016Z,98491.53
2023-01-01T11:42:40.652Z,98510.13
2023-01-01T11:45:48.383Z,98514.28
2023-01-01T11:48:58.343Z,98519.03
2023-01-01T11:52:38.254Z,98525.19
2023-01-01T11:55:51.098Z,98526.53
2023-01-01T11:59:06.035Z,98510.19
2023-01-01T12:02:21.736Z,98519.97
2023-01-01T12:05:51.984Z,98518.34
2023-01-01T12:09:18.307Z,98518.75
2023-01-01T12:12:37.605Z,98486.09
2023-01-01T12:15:56.156Z,98483.88
2023-01-01T12:19:16.454Z,98493.06
2023-01-01T12:22:25.263Z,98483.16
2023-01-01T12:25:43.943Z,98467.56
2023-01-01T12:29:36.903Z,98478.50
2023-01-01T12:33:28.262Z,98495.06
2023-01-01T12:36:51.926Z,98489.59
2023-01-01T12:40:38.013Z,98501.22
2023-01-01T12:44:02.258Z,98485.53
2023-01-01T12:47:37.245Z,98490.50
2023-01-01T12:51:05.192Z,98497.53
2023-01-01T12:54:51.184Z,98501.47
2023-01-01T12:58:14.470Z,98504.16
2023-01-01T13:01:32.806Z,98519.44
2023-01-01T13:04:43.279Z,98522.75
2023-01-01T13:08:02.968Z,98530.59
2023-01-01T13:11:13.229Z,98528.06
2023-01-01T13:14:23.217Z,98525.56
2023-01-01T13:17:33.438Z,98530.56
2023-01-01T13:20:45.643Z,98528.34
2023-01-01T13:23:56.265Z,98528.75
2023-01-01T13:27:07.366Z,98528.84
2023-01-01T13:30:55.127Z,98532.16
2023-01-01T13:35:02.985Z,98544.47
2023-01-01T13:38:53.696Z,98541.44
2023-01-01T13:42:00.891Z,98529.09
2023-01-01T13:45:36.523Z,98538.41
2023-01-01T13:49:29.297Z,98539.44
2023-01-01T13:53:11.417Z,98549.84
2023-01-01T13:56:40.964Z,98559.28
2023-01-01T14:00:25.822Z,98555.28
2023-01-01T14:03:45.807Z,98556.34
2023-01-01T14:07:18.627Z,98568.47
2023-01-01T14:10:33.996Z,98564.78
2023-01-01T14:13:44.618Z,98560.84
2023-01-01T14:16:51.986Z,98564.31
2023-01-01T14:20:01.014Z,98569.16
2023-01-01T14:23:14.833Z,98575.16
2023-01-01T14:26:25.059Z,98578.25
2023-01-01T14:29:35.991Z,98585.06
2023-01-01T14:32:42.303Z,98586.91
2023-01-01T14:36:00.435Z,98597.69
2023-01-01T14:39:07.293Z,98590.50
2023-01-01T14:42:20.838Z,98582.66
2023-01-01T14:45:28.541Z,98583.19
2023-01-01T14:48:37.710Z,98583.41
2023-01-01T14:51:56.745Z,98597.91
2023-01-01T14:55:06.964Z,98601.78
2023-01-01T14:58:21.508Z,98604.22
2023-01-01T15:01:30.474Z,98621.66
2023-01-01T15:04:37.267Z,98624.25
2023-01-01T15:07:46.880Z,98630.94
2023-01-01T15:10:54.105Z,98627.81
2023-01-01T15:14:05.011Z,98631.72
2023-01-01T15:17:14.915Z,98629.75
2023-01-01T15:20:26.274Z,98641.28
2023-01-01T15:23:36.652Z,98638.97
2023-01-01T15:26:52.158Z,98642.31
2023-01-01T15:30:00.745Z,98642.69
2023-01-01T15:33:19.652Z,98648.22
2023-01-01T15:36:28.485Z,98640.25
2023-01-01T15:39:50.729Z,98646.22
2023-01-01T15:43:21.520Z,98643.06
2023-01-01T15:46:32.792Z,98641.78
2023-01-01T15:49:39.515Z,98646.75
2023-01-01T15:52:55.420Z,98637.09
2023-01-01T15:56:13.220Z,98647.63
2023-01-01T15:59:33.575Z,98647.09
2023-01-01T16:02:40.364Z,98649.09
2023-01-01T16:05:55.529Z,98646.97
2023-01-01T16:09:04.608Z,98654.78
2023-01-01T16:12:14.758Z,98650.16
2023-01-01T16:15:21.545Z,98649.50
2023-01-01T16:18:34.722Z,98658.53
2023-01-01T16:21:41.166Z,98657.53
2023-01-01T16:24:48.851Z,98657.69
2023-01-01T16:27:57.797Z,98661.88
2023-01-01T16:31:05.467Z,98660.72
2023-01-01T16:34:16.140Z,98658.06
2023-01-01T16:37:23.626Z,98660.38
2023-01-01T16:40:34.063Z,98654.56
2023-01-01T16:43:48.603Z,98655.56
2023-01-01T16:46:55.225Z,98654.06
2023-01-01T16:50:02.641Z,98663.06
2023-01-01T16:53:09.264Z,98655.91
2023-01-01T16:56:18.167Z,98657.22
2023-01-01T16:59:27.831Z,98657.53
2023-01-01T17:02:35.293Z,98669.19
2023-01-01T17:05:44.417Z,98662.03
2023-01-01T17:08:52.317Z,98666.34
2023-01-01T17:11:59.021Z,98674.47
2023-01-01T17:15:10.927Z,98675.81
2023-01-01T17:18:20.818Z,98677.59
2023-01-01T17:21:35.635Z,98686.72
2023-01-01T17:24:42.298Z,98684.03
2023-01-01T17:27:51.144Z,98683.38
2023-01-01T17:31:07.348Z,98680.69
2023-01-01T17:34:15.503Z,98679.47
2023-01-01T17:37:23.106Z,98682.09
2023-01-01T17:40:36.587Z,98680.59
2023-01-01T17:43:46.585Z,98680.91
2023-01-01T17:46:56.728Z,98678.09
2023-01-01T17:50:03.523Z,98683.78
2023-01-01T17:53:14.213Z,98679.56
2023-01-01T17:56:23.772Z,98677.56
2023-01-01T17:59:32.653Z,98676.25
2023-01-01T18:02:42.013Z,98679.56
2023-01-01T18:05:49.539Z,98683.22
2023-01-01T18:09:00.194Z,98680.34
2023-01-01T18:12:09.130Z,98683.59
2023-01-01T18:15:16.832Z,98688.78
2023-01-01T18:18:26.602Z,98686.47
2023-01-01T18:21:33.529Z,98689.84
2023-01-01T18:24:40.837Z,98695.00
2023-01-01T18:27:51.222Z,98695.84
2023-01-01T18:31:08.901Z,98688.53
2023-01-01T18:34:18.503Z,98689.88
2023-01-01T18:37:26.064Z,98700.47
2023-01-01T18:40:38.051Z,98695.44
2023-01-01T18:43:45.446Z,98696.00
2023-01-01T18:47:01.304Z,98697.25
2023-01-01T18:50:24.109Z,98696.09
2023-01-01T18:53:32.384Z,98686.75
2023-01-01T18:56:39.443Z,98709.56
2023-01-01T18:59:45.872Z,98710.19
2023-01-01T19:03:00.537Z,98710.66
2023-01-01T19:06:28.057Z,98710.81
2023-01-01T19:09:35.202Z,98709.16
2023-01-01T19:12:41.567Z,98713.63
2023-01-01T19:15:52.021Z,98711.44
2023-01-01T19:19:14.069Z,98713.94
2023-01-01T19:22:36.766Z,98722.22
2023-01-01T19:25:44.276Z,98719.09
2023-01-01T19:28:56.599Z,98730.03
2023-01-01T19:32:03.057Z,98738.16
2023-01-01T19:35:16.331Z,98729.34
2023-01-01T19:38:26.269Z,98728.16
2023-01-01T19:41:33.666Z,98730.75
2023-01-01T19:44:42.321Z,98726.28
2023-01-01T19:47:49.590Z,98725.81
2023-01-01T19:50:56.156Z,98730.31
2023-01-01T19:54:07.361Z,98735.06
2023-01-01T19:57:14.334Z,98723.47
2023-01-01T20:00:23.055Z,98726.50
2023-01-01T20:06:57.164Z,98725.81
2023-01-01T20:10:06.819Z,98730.50
2023-01-01T20:13:14.491Z,98721.53
2023-01-01T20:16:21.540Z,98728.34
2023-01-01T20:19:29.244Z,98731.88
2023-01-01T20:22:36.917Z,98730.41
2023-01-01T20:25:47.906Z,98710.84
2023-01-01T20:29:07.029Z,98727.16
2023-01-01T20:32:16.076Z,98734.16
2023-01-01T20:35:43.105Z,98732.66
2023-01-01T20:38:47.791Z,98729.88
2023-01-01T20:41:57.103Z,98737.00
2023-01-01T20:45:04.207Z,98734.63
2023-01-01T20:48:17.825Z,98736.59
2023-01-01T20:51:27.250Z,98737.72
2023-01-01T20:54:33.896Z,98730.91
2023-01-01T20:57:43.923Z,98731.44
2023-01-01T21:00:50.746Z,98733.66
2023-01-01T21:03:57.989Z,98738.28
2023-01-01T21:07:04.615Z,98742.47
2023-01-01T21:10:12.639Z,98743.44
2023-01-01T21:13:23.392Z,98742.91
2023-01-01T21:16:36.203Z,98732.22
2023-01-01T21:19:42.433Z,98736.00
2023-01-01T21:22:50.080Z,98733.56
2023-01-01T21:25:56.793Z,98731.66
2023-01-01T21:29:17.028Z,98736.22
2023-01-01T21:32:27.362Z,98731.41
2023-01-01T21:35:38.364Z,98733.28
2023-01-01T21:38:44.951Z,98736.41
2023-01-01T21:41:52.068Z,98733.56
2023-01-01T21:45:02.995Z,98720.31
2023-01-01T21:48:21.612Z,98720.41
2023-01-01T21:51:30.661Z,98721.41
2023-01-01T21:54:41.441Z,98714.75
2023-01-01T21:57:48.208Z,98724.38
2023-01-01T22:00:57.929Z,98721.22
2023-01-01T22:04:19.772Z,98718.69
2023-01-01T22:07:57.424Z,98741.91
2023-01-01T22:11:01.082Z,98730.09
2023-01-01T22:14:17.494Z,98725.84
2023-01-01T22:17:36.831Z,98714.66
2023-01-01T22:20:48.750Z,98719.19
2023-01-01T22:24:03.108Z,98720.47
2023-01-01T22:27:31.130Z,98718.88
2023-01-01T22:30:44.874Z,98713.78
2023-01-01T22:34:00.492Z,98709.47
2023-01-01T22:37:12.187Z,98718.28
2023-01-01T22:40:31.017Z,98719.09
2023-01-01T22:43:41.830Z,98710.09
2023-01-01T22:46:49.013Z,98706.31
2023-01-01T22:49:57.812Z,98702.34
2023-01-01T22:53:04.816Z,98704.22
2023-01-01T22:56:11.693Z,98687.34
2023-01-01T22:59:18.706Z,98705.88
2023-01-01T23:02:24.900Z,98704.38
2023-01-01T23:05:34.809Z,98700.44
2023-01-01T23:08:41.194Z,98698.72
2023-01-01T23:11:48.677Z,98692.72
2023-01-01T23:15:07.164Z,98695.69
2023-01-01T23:18:15.491Z,98693.63
2023-01-01T23:21:27.589Z,98697.41
2023-01-01T23:24:36.631Z,98692.97
2023-01-01T23:27:44.172Z,98688.88
2023-01-01T23:30:52.599Z,98694.56
2023-01-01T23:34:02.281Z,98680.97
2023-01-01T23:37:12.978Z,98684.91
2023-01-01T23:40:19.318Z,98683.88
2023-01-01T23:43:26.279Z,98684.78
2023-01-01T23:46:34.869Z,98692.53
2023-01-01T23:49:45.296Z,98686.47
2023-01-01T23:52:54.225Z,98689.94
2023-01-01T23:56:01.441Z,98683.34
2023-01-01T23:59:07.604Z,98689.47
